Time;durP1;ratioP1;P1;durP2;ratioP2;P2;SDS_P1;SDS_P2;PMS_P1;PMS_P2;Temp;Humidity;BMP_temperature;BMP_pressure;BME280_temperature;BME280_humidity;BME280_pressure;Samples;Min_cycle;Max_cycle;Signal;HPM_P1;HPM_P2
2021/11/25 00:00:23;;;;;;;40.97;30.92;;;;;;;13.03;70.19;102272.66;4840982;28;102228;-53
2021/11/25 00:02:51;;;;;;;42.08;30.98;;;;;;;13.03;70.08;102272.66;4840938;29;102203;-53
2021/11/25 00:05:18;;;;;;;46.20;32.28;;;;;;;13.04;70.19;102271.56;4841977;29;102404;-53
2021/11/25 00:07:45;;;;;;;41.60;30.60;;;;;;;13.03;70.11;102272.66;4841644;29;104009;-53
2021/11/25 00:10:12;;;;;;;41.08;30.77;;;;;;;13.03;70.22;102272.66;4846808;28;102121;-53
2021/11/25 00:12:38;;;;;;;42.15;29.92;;;;;;;13.04;70.02;102273.47;4842228;29;102237;-53
2021/11/25 00:15:06;;;;;;;39.78;29.77;;;;;;;13.03;70.02;102272.66;4851929;29;103685;-53
2021/11/25 00:17:33;;;;;;;40.15;29.52;;;;;;;13.03;70.16;102261.72;4834927;29;103706;-53
2021/11/25 00:20:01;;;;;;;39.20;29.60;;;;;;;13.03;70.14;102267.19;4840211;29;102025;-53
2021/11/25 00:22:27;;;;;;;39.90;29.58;;;;;;;13.03;69.95;102267.19;4841326;29;102521;-53
2021/11/25 00:24:54;;;;;;;39.03;29.17;;;;;;;13.02;70.07;102262.81;4843361;29;102415;-53
2021/11/25 00:27:21;;;;;;;38.65;28.88;;;;;;;13.02;70.00;102254.63;4841585;29;103850;-53
2021/11/25 00:29:48;;;;;;;38.60;28.33;;;;;;;13.02;70.05;102254.63;4843618;29;102673;-53
2021/11/25 00:32:14;;;;;;;37.83;28.13;;;;;;;13.03;70.20;102256.25;4840047;29;102092;-53
2021/11/25 00:34:40;;;;;;;37.85;29.00;;;;;;;13.03;70.04;102256.25;4850653;28;102511;-53
2021/11/25 00:37:08;;;;;;;37.40;27.75;;;;;;;13.03;70.08;102261.72;4821420;29;104012;-53
2021/11/25 00:39:35;;;;;;;36.22;26.80;;;;;;;13.02;69.92;102259.22;4821706;29;102277;-53
2021/11/25 00:42:03;;;;;;;40.33;28.30;;;;;;;13.03;70.04;102261.72;4821141;29;102230;-53
2021/11/25 00:44:30;;;;;;;36.08;26.60;;;;;;;13.02;70.23;102254.63;4823767;29;102691;-54
2021/11/25 00:46:57;;;;;;;37.88;27.45;;;;;;;13.02;70.03;102251.88;4820592;29;104052;-54
2021/11/25 00:49:24;;;;;;;39.10;28.88;;;;;;;13.03;70.01;102252.72;4822789;29;102261;-53
2021/11/25 00:51:50;;;;;;;35.53;25.95;;;;;;;13.02;70.02;102253.75;4822147;29;102394;-53
2021/11/25 00:54:18;;;;;;;37.47;26.92;;;;;;;13.02;69.91;102251.88;4824227;29;102227;-53
2021/11/25 00:56:45;;;;;;;38.40;27.13;;;;;;;13.01;69.93;102247.47;4823153;29;103959;-53
2021/11/25 00:59:11;;;;;;;34.33;26.52;;;;;;;13.01;70.23;102250.22;4819819;29;102142;-53
2021/11/25 01:01:38;;;;;;;34.38;26.65;;;;;;;13.02;70.09;102251.88;4821661;29;102241;-53
2021/11/25 01:04:05;;;;;;;34.75;24.52;;;;;;;13.02;70.11;102248.28;4823433;29;103591;-53
2021/11/25 01:06:32;;;;;;;38.75;27.42;;;;;;;13.01;70.08;102242.00;4831961;29;104073;-53
2021/11/25 01:08:59;;;;;;;33.88;26.33;;;;;;;13.00;70.11;102251.28;4824843;29;102296;-53
2021/11/25 01:11:27;;;;;;;37.38;27.08;;;;;;;13.01;69.99;102247.47;4823914;29;102183;-53
2021/11/25 01:13:53;;;;;;;36.03;27.25;;;;;;;13.01;70.26;102236.53;4818644;29;106135;-53
2021/11/25 01:16:21;;;;;;;34.00;25.52;;;;;;;13.01;70.06;102241.19;4816482;29;103779;-53
2021/11/25 01:18:53;;;;;;;33.85;25.55;;;;;;;13.02;70.26;102237.38;4819485;29;102202;-53
2021/11/25 01:21:20;;;;;;;35.40;25.50;;;;;;;13.01;70.00;102235.72;4819563;29;103103;-53
2021/11/25 01:23:46;;;;;;;36.58;25.60;;;;;;;13.02;70.17;102235.50;4823765;29;102377;-53
2021/11/25 01:26:12;;;;;;;35.78;25.50;;;;;;;13.01;69.98;102225.59;4825289;29;103950;-53
2021/11/25 01:28:40;;;;;;;33.38;25.15;;;;;;;13.01;70.05;102233.81;4821734;29;102432;-53
2021/11/25 01:31:09;;;;;;;35.25;24.23;;;;;;;13.01;69.98;102225.59;4823251;29;102633;-53
2021/11/25 01:33:35;;;;;;;34.78;24.88;;;;;;;13.01;70.14;102213.84;4820317;29;102651;-53
2021/11/25 01:36:02;;;;;;;35.65;25.52;;;;;;;13.01;70.12;102222.06;4818247;29;104126;-53
2021/11/25 01:38:30;;;;;;;33.92;24.52;;;;;;;13.00;70.14;102210.31;4826787;29;102552;-53
2021/11/25 01:40:59;;;;;;;32.30;23.50;;;;;;;13.00;70.14;102213.03;4824880;29;102103;-53
2021/11/25 01:43:26;;;;;;;32.40;23.98;;;;;;;13.00;70.01;102202.09;4834231;29;102374;-53
2021/11/25 01:45:55;;;;;;;32.67;23.02;;;;;;;13.00;70.42;102202.09;4830886;29;104080;-53
2021/11/25 01:48:23;;;;;;;31.30;23.20;;;;;;;13.00;70.15;102202.09;4827413;29;102469;-53
2021/11/25 01:50:50;;;;;;;32.33;24.05;;;;;;;13.00;70.06;102207.56;4824922;29;102111;-53
2021/11/25 01:53:18;;;;;;;30.70;23.08;;;;;;;13.00;70.20;102207.56;4823323;29;102308;-53
2021/11/25 01:55:45;;;;;;;32.67;24.20;;;;;;;13.00;70.40;102207.56;4824071;29;103682;-53
2021/11/25 01:58:12;;;;;;;35.13;23.35;;;;;;;13.00;70.25;102207.56;4829190;29;101982;-53
2021/11/25 02:00:42;;;;;;;29.90;23.02;;;;;;;13.00;70.10;102215.75;4821023;29;102558;-53
2021/11/25 02:03:10;;;;;;;32.17;23.05;;;;;;;13.00;70.33;102204.84;4820256;29;102761;-53
2021/11/25 02:05:38;;;;;;;30.50;23.15;;;;;;;13.00;69.93;102215.75;4816644;29;108144;-53
2021/11/25 02:08:06;;;;;;;31.23;21.40;;;;;;;13.00;70.19;102204.84;4817391;29;102281;-53
2021/11/25 02:10:36;;;;;;;29.80;22.27;;;;;;;12.98;70.04;102202.38;4833298;29;102453;-53
2021/11/25 02:13:02;;;;;;;28.98;22.05;;;;;;;12.99;70.18;102203.19;4829107;29;102572;-52
2021/11/25 02:15:34;;;;;;;27.48;21.45;;;;;;;12.99;70.07;102200.47;4821318;29;104103;-53
2021/11/25 02:18:02;;;;;;;28.42;21.05;;;;;;;12.99;70.14;102208.66;4818775;29;102539;-53
2021/11/25 02:20:32;;;;;;;29.60;21.58;;;;;;;12.99;69.96;102204.00;4820227;29;102201;-53
2021/11/25 02:23:00;;;;;;;26.55;20.38;;;;;;;12.98;69.99;102205.09;4822079;29;102369;-53
2021/11/25 02:25:27;;;;;;;27.03;21.23;;;;;;;12.98;70.06;102204.25;4819726;29;103739;-53
2021/11/25 02:27:54;;;;;;;24.77;19.85;;;;;;;12.98;70.22;102210.56;4819531;29;103530;-53
2021/11/25 02:30:20;;;;;;;26.35;20.48;;;;;;;12.98;70.05;102204.25;4822360;29;102502;-53
2021/11/25 02:32:47;;;;;;;25.95;19.95;;;;;;;12.99;70.16;102211.38;4823162;29;103064;-53
2021/11/25 02:35:16;;;;;;;25.92;20.55;;;;;;;12.98;70.10;102198.78;4820678;29;103983;-53
2021/11/25 02:37:45;;;;;;;25.77;19.80;;;;;;;12.98;70.19;102209.72;4825569;29;102274;-53
2021/11/25 02:40:17;;;;;;;25.55;18.80;;;;;;;12.98;70.23;102209.72;4811197;29;102215;-53
2021/11/25 02:42:44;;;;;;;26.33;19.58;;;;;;;12.98;70.11;102209.72;4826136;29;102498;-53
2021/11/25 02:45:11;;;;;;;26.17;19.92;;;;;;;12.98;70.11;102201.50;4834258;29;103780;-53
2021/11/25 02:47:39;;;;;;;25.40;18.90;;;;;;;12.97;69.83;102197.13;4821665;29;102235;-53
2021/11/25 02:50:06;;;;;;;23.98;18.55;;;;;;;12.99;70.14;102205.91;4816514;29;102059;-53
2021/11/25 02:52:33;;;;;;;25.55;19.27;;;;;;;12.98;70.22;102204.25;4821591;29;102399;-53
2021/11/25 02:55:00;;;;;;;25.42;18.77;;;;;;;12.97;70.05;102197.13;4820717;29;103873;-53
2021/11/25 02:57:27;;;;;;;26.90;19.40;;;;;;;12.97;70.10;102197.13;4820520;29;102125;-53
2021/11/25 02:59:53;;;;;;;25.08;18.67;;;;;;;12.97;70.21;102197.97;4814688;29;102404;-53
2021/11/25 03:02:19;;;;;;;23.05;18.60;;;;;;;12.96;70.07;102190.03;4816381;29;102734;-54
2021/11/25 03:04:45;;;;;;;23.10;17.85;;;;;;;12.97;70.20;102189.75;4820900;29;107045;-53
2021/11/25 03:07:19;;;;;;;22.65;17.65;;;;;;;12.97;70.10;102197.97;4821355;29;102640;-54
2021/11/25 03:09:46;;;;;;;21.75;17.48;;;;;;;12.97;70.00;102197.13;4822323;29;103235;-53
2021/11/25 03:12:13;;;;;;;22.50;16.77;;;;;;;12.96;69.95;102184.56;4820930;29;102653;-54
2021/11/25 03:14:40;;;;;;;22.27;17.33;;;;;;;12.96;70.02;102184.56;4831835;29;104050;-53
2021/11/25 03:17:07;;;;;;;23.35;17.15;;;;;;;12.96;70.26;102179.09;4821266;29;102350;-53
2021/11/25 03:19:33;;;;;;;20.58;16.42;;;;;;;12.95;70.29;102178.28;4821335;29;102208;-53
2021/11/25 03:21:59;;;;;;;22.20;16.75;;;;;;;12.96;69.90;102184.56;4818664;29;102242;-53
2021/11/25 03:24:26;;;;;;;22.65;16.98;;;;;;;12.96;69.94;102179.09;4825004;29;103859;-53
2021/11/25 03:26:52;;;;;;;21.95;16.38;;;;;;;12.95;70.04;102166.50;4829606;29;102303;-53
2021/11/25 03:29:20;;;;;;;22.23;16.02;;;;;;;12.95;70.11;102172.81;4822564;29;102410;-53
2021/11/25 03:31:46;;;;;;;21.80;16.85;;;;;;;12.95;70.11;102170.06;4818883;29;102497;-53
2021/11/25 03:34:13;;;;;;;20.95;16.35;;;;;;;12.95;70.09;102177.44;4821240;29;104081;-53
2021/11/25 03:36:39;;;;;;;21.33;15.93;;;;;;;12.94;70.06;102170.31;4838205;29;102408;-53
2021/11/25 03:39:06;;;;;;;20.25;15.93;;;;;;;12.95;70.07;102167.34;4839451;29;102422;-53
2021/11/25 03:41:34;;;;;;;20.83;16.17;;;;;;;12.94;70.03;102171.13;4838976;29;102591;-53
2021/11/25 03:44:01;;;;;;;21.08;16.10;;;;;;;12.95;69.96;102166.50;4840345;29;103782;-53
2021/11/25 03:46:30;;;;;;;20.42;16.05;;;;;;;12.94;69.99;102159.38;4840389;29;102265;-53
2021/11/25 03:48:57;;;;;;;19.60;15.25;;;;;;;12.94;70.05;102165.66;4839229;29;102425;-53
2021/11/25 03:51:23;;;;;;;18.25;15.63;;;;;;;12.94;70.01;102156.66;4838940;29;102442;-53
2021/11/25 03:53:50;;;;;;;19.60;15.20;;;;;;;12.93;70.03;102153.09;4837120;29;103897;-53
2021/11/25 03:56:17;;;;;;;19.85;15.18;;;;;;;12.93;70.05;102153.09;4840373;29;102114;-53
2021/11/25 03:58:44;;;;;;;19.17;14.80;;;;;;;12.94;70.01;102148.44;4839831;29;102241;-53
2021/11/25 04:01:12;;;;;;;17.55;14.20;;;;;;;12.93;70.14;102152.25;4839418;29;102590;-53
2021/11/25 04:03:40;;;;;;;18.63;14.55;;;;;;;12.93;70.08;102144.06;4831428;29;104103;-53
2021/11/25 04:06:06;;;;;;;18.85;14.68;;;;;;;12.93;70.03;102149.53;4840162;29;102227;-53
2021/11/25 04:08:33;;;;;;;19.50;15.35;;;;;;;12.93;70.13;102146.81;4838675;29;102356;-53
2021/11/25 04:10:59;;;;;;;19.00;14.23;;;;;;;12.92;70.04;102147.88;4840025;29;102136;-53
2021/11/25 04:13:26;;;;;;;18.67;14.52;;;;;;;12.92;70.07;102150.63;4838792;29;103900;-53
2021/11/25 04:15:53;;;;;;;18.55;14.30;;;;;;;12.92;69.96;102142.44;4838866;29;102571;-53
2021/11/25 04:18:20;;;;;;;19.33;14.38;;;;;;;12.91;69.97;102152.53;4836761;29;102062;-53
2021/11/25 04:20:47;;;;;;;20.70;14.50;;;;;;;12.92;69.99;102147.88;4844701;29;102669;-53
2021/11/25 04:23:14;;;;;;;18.35;14.13;;;;;;;12.92;70.10;102145.97;4842150;29;103911;-53
2021/11/25 04:25:41;;;;;;;18.85;13.80;;;;;;;12.92;70.12;102150.63;4837501;29;102330;-53
2021/11/25 04:28:08;;;;;;;19.02;14.30;;;;;;;12.91;70.07;102138.88;4842640;29;102243;-53
2021/11/25 04:36:09;;;;;;;16.48;12.60;;;;;;;12.91;69.97;102148.94;4839070;29;102573;-53
2021/11/25 04:38:36;;;;;;;16.70;13.13;;;;;;;12.90;69.90;102145.38;4841980;29;102226;-53
2021/11/25 04:41:03;;;;;;;18.02;13.10;;;;;;;12.90;69.98;102141.84;4841464;29;102538;-53
2021/11/25 04:43:30;;;;;;;15.75;12.07;;;;;;;12.90;70.02;102142.66;4839289;29;104163;-53
2021/11/25 04:45:57;;;;;;;18.23;13.07;;;;;;;12.90;70.14;102142.66;4841337;29;102451;-53
2021/11/25 04:48:25;;;;;;;15.25;12.88;;;;;;;12.89;69.87;102135.53;4842429;29;102084;-53
2021/11/25 04:50:52;;;;;;;16.67;12.15;;;;;;;12.89;69.84;102138.28;4842091;28;102435;-53
2021/11/25 04:53:21;;;;;;;16.80;12.45;;;;;;;12.89;69.96;102140.19;4842291;28;103888;-53
2021/11/25 04:55:47;;;;;;;14.70;12.60;;;;;;;12.89;69.97;102137.47;4842751;29;103218;-53
2021/11/25 04:58:14;;;;;;;14.43;11.68;;;;;;;12.88;70.13;102144.84;4834768;29;102599;-53
2021/11/25 05:00:42;;;;;;;15.70;12.00;;;;;;;12.89;69.99;102140.19;4840913;29;102284;-53
2021/11/25 05:03:08;;;;;;;14.80;11.85;;;;;;;12.88;69.91;102131.16;4841304;29;103985;-53
2021/11/25 05:05:35;;;;;;;15.05;11.90;;;;;;;12.89;69.96;102140.19;4842998;29;102279;-53
2021/11/25 05:08:03;;;;;;;16.02;11.93;;;;;;;12.88;69.99;102147.56;4838048;29;102457;-53
2021/11/25 05:10:31;;;;;;;15.35;12.10;;;;;;;12.88;70.03;102146.75;4843720;29;102546;-53
2021/11/25 05:12:57;;;;;;;14.00;11.45;;;;;;;12.88;69.86;102141.28;4839865;29;103705;-53
2021/11/25 05:15:24;;;;;;;14.65;11.52;;;;;;;12.89;69.99;102145.66;4838894;29;104046;-54
2021/11/25 05:17:51;;;;;;;15.88;11.75;;;;;;;12.88;69.96;102146.75;4841336;29;102598;-53
2021/11/25 05:20:19;;;;;;;14.05;11.10;;;;;;;12.88;70.03;102152.22;4843827;29;102664;-53
2021/11/25 05:22:45;;;;;;;15.18;11.50;;;;;;;12.88;70.07;102144.00;4841903;29;103876;-53
2021/11/25 05:25:13;;;;;;;14.60;11.63;;;;;;;12.87;70.03;102145.06;4848303;28;102223;-53
2021/11/25 05:27:42;;;;;;;14.52;11.43;;;;;;;12.87;69.84;102153.25;4843475;29;102290;-53
2021/11/25 05:30:10;;;;;;;13.65;11.40;;;;;;;12.87;69.92;102147.81;4838574;29;102567;-53
2021/11/25 05:32:38;;;;;;;12.85;10.60;;;;;;;12.87;69.93;102147.81;4840359;28;103947;-53
2021/11/25 05:35:06;;;;;;;13.30;10.82;;;;;;;12.87;70.03;102150.53;4835687;29;102532;-53
2021/11/25 05:37:34;;;;;;;13.85;10.60;;;;;;;12.87;69.80;102150.53;4829550;29;102185;-53
2021/11/25 05:40:01;;;;;;;14.23;10.50;;;;;;;12.87;70.03;102153.25;4822063;29;102379;-53
2021/11/25 05:42:30;;;;;;;14.23;11.13;;;;;;;12.87;69.97;102154.09;4820015;29;104095;-53
2021/11/25 05:44:58;;;;;;;13.80;10.95;;;;;;;12.86;69.93;102157.91;4823844;29;102381;-53
2021/11/25 05:47:25;;;;;;;12.93;10.82;;;;;;;12.87;70.04;102158.72;4821082;29;103810;-53
2021/11/25 05:49:51;;;;;;;11.52;10.05;;;;;;;12.86;69.94;102159.81;4823355;29;102827;-53
2021/11/25 05:52:17;;;;;;;11.85;10.10;;;;;;;12.86;69.70;102159.81;4821914;29;103913;-53
2021/11/25 05:54:44;;;;;;;12.13;10.25;;;;;;;12.86;70.02;102157.91;4824833;29;102247;-53
2021/11/25 05:57:10;;;;;;;14.70;10.95;;;;;;;12.85;70.17;102160.91;4822123;29;102707;-53
2021/11/25 05:59:37;;;;;;;13.57;10.05;;;;;;;12.86;69.97;102165.28;4829390;29;102182;-54
2021/11/25 06:02:05;;;;;;;13.80;10.48;;;;;;;12.85;69.97;102167.19;4820604;29;104057;-53
2021/11/25 06:04:32;;;;;;;11.83;10.20;;;;;;;12.86;69.83;102162.53;4817514;29;102275;-53
2021/11/25 06:06:58;;;;;;;11.88;9.75;;;;;;;12.86;69.87;102159.81;4820966;29;102229;-53
2021/11/25 06:09:24;;;;;;;14.18;10.63;;;;;;;12.85;69.92;102152.72;4820436;29;102555;-53
2021/11/25 06:11:51;;;;;;;13.13;10.50;;;;;;;12.86;69.82;102148.88;4820749;29;103986;-53
2021/11/25 06:14:18;;;;;;;11.63;9.73;;;;;;;12.85;69.90;102155.44;4818459;29;102670;-53
2021/11/25 06:16:44;;;;;;;12.95;10.27;;;;;;;12.84;70.05;102154.63;4821677;29;102047;-53
2021/11/25 06:19:12;;;;;;;12.43;10.13;;;;;;;12.85;69.77;102147.25;4828527;29;102174;-53
2021/11/25 06:21:38;;;;;;;12.15;9.80;;;;;;;12.84;69.66;102146.41;4811864;29;104013;-53
2021/11/25 06:24:04;;;;;;;13.30;10.00;;;;;;;12.85;69.88;102144.50;4824656;29;102265;-53
2021/11/25 06:26:31;;;;;;;13.68;9.98;;;;;;;12.85;69.94;102141.78;4821773;29;102262;-53
2021/11/25 06:28:58;;;;;;;12.07;10.02;;;;;;;12.84;69.86;102143.69;4819689;29;102606;-54
2021/11/25 06:31:24;;;;;;;11.75;9.95;;;;;;;12.85;69.97;102152.72;4819742;29;104065;-53
2021/11/25 06:33:51;;;;;;;10.63;9.20;;;;;;;12.84;69.89;102149.16;4820677;29;103586;-53
2021/11/25 06:36:18;;;;;;;11.30;9.40;;;;;;;12.84;69.93;102148.28;4819431;29;102435;-53
2021/11/25 06:38:45;;;;;;;11.52;9.45;;;;;;;12.85;69.83;102152.72;4818039;29;102134;-53
2021/11/25 06:41:11;;;;;;;12.25;9.80;;;;;;;12.85;69.93;102149.97;4821635;29;104056;-53
2021/11/25 06:43:38;;;;;;;12.77;9.73;;;;;;;12.85;69.81;102144.50;4824693;29;102273;-53
2021/11/25 06:46:05;;;;;;;10.38;9.13;;;;;;;12.84;69.93;102137.38;4810923;29;102851;-53
2021/11/25 06:48:31;;;;;;;12.32;9.85;;;;;;;12.85;69.95;102139.03;4824011;29;102162;-54
2021/11/25 06:50:58;;;;;;;11.98;9.75;;;;;;;12.86;69.80;102140.69;4816434;29;103674;-53
2021/11/25 06:53:28;;;;;;;11.45;9.38;;;;;;;12.85;69.90;102139.03;4815158;29;102216;-54
2021/11/25 06:55:55;;;;;;;13.43;9.15;;;;;;;12.86;69.87;102135.22;4820296;29;103114;-53
2021/11/25 06:58:22;;;;;;;12.57;9.57;;;;;;;12.85;69.85;102133.59;4823608;29;102615;-54
2021/11/25 07:00:48;;;;;;;13.68;9.90;;;;;;;12.84;69.87;102142.84;4819895;29;103924;-53
2021/11/25 07:03:15;;;;;;;12.75;9.88;;;;;;;12.85;70.09;102139.88;4816479;29;103699;-53
2021/11/25 07:05:42;;;;;;;12.77;10.10;;;;;;;12.84;69.81;102137.38;4821718;29;102477;-53
2021/11/25 07:08:08;;;;;;;13.30;10.43;;;;;;;12.83;69.93;102133.00;4821450;29;102704;-53
2021/11/25 07:10:36;;;;;;;11.77;9.88;;;;;;;12.84;69.82;102137.38;4818438;29;104680;-53
2021/11/25 07:13:03;;;;;;;13.60;9.03;;;;;;;12.83;69.78;102133.81;4820633;29;102366;-53
2021/11/25 07:15:30;;;;;;;11.75;9.68;;;;;;;12.83;69.75;102130.25;4818316;29;107918;-53
2021/11/25 07:18:08;;;;;;;12.35;10.18;;;;;;;12.83;70.00;102130.25;4819823;29;102277;-53
2021/11/25 07:20:35;;;;;;;10.35;8.77;;;;;;;12.83;69.79;102133.00;4813560;29;103042;-53
2021/11/25 07:23:02;;;;;;;11.50;9.13;;;;;;;12.82;69.74;102131.34;4822773;29;102227;-53
2021/11/25 07:25:28;;;;;;;10.88;9.05;;;;;;;12.82;70.03;102126.72;4817263;29;102845;-53
2021/11/25 07:27:56;;;;;;;11.35;8.55;;;;;;;12.82;69.95;102129.44;4822610;29;102509;-53
2021/11/25 07:30:23;;;;;;;10.48;8.73;;;;;;;12.82;69.85;102128.63;4820945;29;103939;-53
2021/11/25 07:32:50;;;;;;;11.82;8.73;;;;;;;12.81;69.90;102130.53;4813849;29;102173;-53
2021/11/25 07:35:19;;;;;;;10.07;8.35;;;;;;;12.81;69.85;102130.53;4817068;29;102979;-53
2021/11/25 07:37:46;;;;;;;13.60;8.52;;;;;;;12.80;69.92;102125.28;4813830;29;102397;-53
2021/11/25 07:40:13;;;;;;;10.73;8.98;;;;;;;12.80;69.83;102131.59;4817867;29;103942;-53
2021/11/25 07:42:39;;;;;;;11.10;9.18;;;;;;;12.81;69.86;102126.97;4815392;29;102734;-53
2021/11/25 07:45:08;;;;;;;10.98;8.60;;;;;;;12.80;69.87;102128.03;4819299;29;102268;-53
2021/11/25 07:47:37;;;;;;;10.68;9.32;;;;;;;12.81;69.94;102132.44;4814399;29;102680;-53
2021/11/25 07:50:06;;;;;;;12.13;8.67;;;;;;;12.80;69.92;102128.03;4816243;29;103868;-53
2021/11/25 07:52:34;;;;;;;12.25;8.43;;;;;;;12.79;69.63;102126.38;4817519;29;102103;-53
2021/11/25 07:55:00;;;;;;;9.18;8.07;;;;;;;12.78;69.82;102122.00;4828644;29;101993;-54
2021/11/25 07:57:27;;;;;;;9.70;8.05;;;;;;;12.79;69.81;102123.66;4821211;29;102437;-53
2021/11/25 07:59:54;;;;;;;9.93;7.68;;;;;;;12.78;69.57;102113.81;4823710;29;103881;-53
2021/11/25 08:02:22;;;;;;;9.93;7.38;;;;;;;12.78;69.63;102122.00;4820504;29;102790;-53
2021/11/25 08:04:49;;;;;;;9.15;7.30;;;;;;;12.78;69.69;102116.53;4816670;29;102476;-53
2021/11/25 08:07:16;;;;;;;9.00;8.10;;;;;;;12.78;69.72;102116.53;4819717;29;102507;-53
2021/11/25 08:09:43;;;;;;;9.30;7.47;;;;;;;12.77;69.62;102120.34;4822043;29;103016;-53
2021/11/25 08:12:10;;;;;;;8.23;7.38;;;;;;;12.77;69.31;102114.91;4813604;29;102079;-53
2021/11/25 08:14:37;;;;;;;8.15;6.85;;;;;;;12.77;69.57;102112.16;4820188;29;102177;-53
2021/11/25 08:17:04;;;;;;;12.20;7.90;;;;;;;12.77;69.73;102117.63;4819906;29;102257;-53
2021/11/25 08:19:33;;;;;;;8.90;7.68;;;;;;;12.76;69.49;102114.03;4821345;29;104043;-52
2021/11/25 08:21:59;;;;;;;9.85;7.35;;;;;;;12.75;69.61;102115.94;4816186;29;102870;-53
2021/11/25 08:24:26;;;;;;;7.97;7.18;;;;;;;12.76;69.61;102111.31;4817508;29;103337;-53
2021/11/25 08:26:53;;;;;;;9.43;7.65;;;;;;;12.75;69.78;102113.22;4827802;29;102157;-53
2021/11/25 08:29:19;;;;;;;8.27;7.30;;;;;;;12.75;69.59;102102.28;4821638;29;104152;-53
2021/11/25 08:31:46;;;;;;;8.80;7.07;;;;;;;12.75;69.53;102107.75;4812503;29;102544;-53
2021/11/25 08:34:17;;;;;;;8.60;7.63;;;;;;;12.73;69.67;102104.47;4822445;29;102521;-53
2021/11/25 08:36:45;;;;;;;9.00;7.63;;;;;;;12.75;69.61;102096.00;4812726;29;102842;-53
2021/11/25 08:39:11;;;;;;;7.93;7.13;;;;;;;12.73;69.68;102101.75;4818600;29;103941;-53
2021/11/25 08:41:38;;;;;;;7.25;6.55;;;;;;;12.72;69.96;102094.59;4820501;29;102338;-53
2021/11/25 08:44:05;;;;;;;7.45;6.35;;;;;;;12.73;69.46;102099.00;4815515;29;102551;-53
2021/11/25 08:46:31;;;;;;;8.38;6.65;;;;;;;12.72;69.43;102089.13;4812742;29;106604;-53
2021/11/25 08:49:00;;;;;;;7.35;6.25;;;;;;;12.71;69.48;102090.22;4821352;29;103988;-53
2021/11/25 08:51:28;;;;;;;7.35;6.20;;;;;;;12.72;69.44;102083.69;4814145;29;102406;-53
2021/11/25 08:53:59;;;;;;;8.38;7.00;;;;;;;12.71;69.78;102073.84;4818507;29;103969;-53
2021/11/25 08:56:26;;;;;;;8.32;6.90;;;;;;;12.71;69.78;102073.84;4816232;29;102418;-53
2021/11/25 08:58:52;;;;;;;7.88;6.57;;;;;;;12.71;69.47;102065.63;4814632;29;104050;-52
2021/11/25 09:01:19;;;;;;;8.05;6.35;;;;;;;12.70;69.49;102061.25;4818034;29;106136;-52
2021/11/25 09:03:45;;;;;;;7.18;6.25;;;;;;;12.70;69.34;102055.81;4819400;29;102242;-52
2021/11/25 09:06:12;;;;;;;7.65;6.55;;;;;;;12.71;69.69;102062.91;4820009;29;102405;-52
2021/11/25 09:08:41;;;;;;;7.25;6.55;;;;;;;12.70;69.45;102061.25;4813218;29;103935;-53
2021/11/25 09:11:10;;;;;;;6.97;6.25;;;;;;;12.70;69.70;102047.59;4820573;29;102278;-53
2021/11/25 09:13:37;;;;;;;9.90;6.65;;;;;;;12.70;69.39;102053.06;4819468;29;102268;-53
2021/11/25 09:16:04;;;;;;;7.63;6.43;;;;;;;12.70;69.49;102054.97;4823660;29;103601;-53
2021/11/25 09:18:31;;;;;;;7.43;6.10;;;;;;;12.69;69.31;102048.69;4819080;29;102715;-53
2021/11/25 09:20:57;;;;;;;7.47;6.25;;;;;;;12.69;69.19;102045.97;4814531;29;102636;-53
2021/11/25 09:23:24;;;;;;;7.43;6.63;;;;;;;12.70;69.40;102044.06;4817196;29;102484;-53
2021/11/25 09:25:52;;;;;;;6.47;5.78;;;;;;;12.69;69.21;102037.78;4819770;29;102369;-53
2021/11/25 09:28:23;;;;;;;6.95;6.28;;;;;;;12.68;69.41;102036.09;4819242;29;103917;-53
2021/11/25 09:30:51;;;;;;;6.70;6.05;;;;;;;12.69;69.25;102029.56;4819204;29;102578;-54
2021/11/25 09:33:19;;;;;;;7.53;6.72;;;;;;;12.69;69.21;102017.78;4820844;29;102108;-53
2021/11/25 09:35:46;;;;;;;6.75;5.78;;;;;;;12.69;69.29;102021.38;4822966;29;102816;-53
2021/11/25 09:38:15;;;;;;;6.90;6.20;;;;;;;12.69;69.36;102023.25;4818976;29;103907;-53
2021/11/25 09:40:44;;;;;;;8.20;5.87;;;;;;;12.69;69.35;102015.06;4809411;29;102676;-53
2021/11/25 09:43:13;;;;;;;6.85;6.13;;;;;;;12.69;69.26;102004.13;4818156;29;102258;-53
2021/11/25 09:45:44;;;;;;;7.10;6.40;;;;;;;12.69;69.40;102010.47;4817569;29;102326;-53
2021/11/25 09:48:12;;;;;;;6.43;5.53;;;;;;;12.69;69.11;102007.72;4815439;29;104004;-53
2021/11/25 09:50:43;;;;;;;7.40;5.43;;;;;;;12.69;69.09;101998.69;4820846;29;102392;-53
2021/11/25 09:53:13;;;;;;;6.80;6.10;;;;;;;12.69;69.21;101995.94;4817439;29;102366;-53
2021/11/25 09:55:42;;;;;;;6.50;5.90;;;;;;;12.68;69.59;101989.66;4825001;29;102374;-53
2021/11/25 09:58:12;;;;;;;6.35;5.50;;;;;;;12.67;68.83;101990.75;4826204;29;105089;-53
2021/11/25 10:00:42;;;;;;;7.15;5.88;;;;;;;12.68;69.27;101997.84;4808613;29;102601;-53
2021/11/25 10:03:11;;;;;;;6.55;5.60;;;;;;;12.67;69.34;101987.19;4821978;29;102533;-53
2021/11/25 10:05:38;;;;;;;;;;;;;;;12.68;69.21;101984.19;4816172;29;102311;-53
2021/11/25 10:08:23;;;;;;;6.18;5.57;;;;;;;12.67;69.23;101985.28;4821538;29;104916;-53
2021/11/25 10:10:56;;;;;;;7.13;5.95;;;;;;;12.67;69.31;101989.94;4829535;29;102453;-53
2021/11/25 10:13:26;;;;;;;7.45;6.07;;;;;;;12.65;69.32;101981.97;4834640;29;102635;-53
2021/11/25 10:15:58;;;;;;;6.80;6.00;;;;;;;12.66;69.10;101972.72;4822986;29;102305;-53
2021/11/25 10:18:25;;;;;;;6.90;5.97;;;;;;;12.65;69.18;101965.59;4833627;29;102692;-53
2021/11/25 10:20:52;;;;;;;6.07;5.35;;;;;;;12.65;69.21;101962.84;4831625;29;103047;-53
2021/11/25 10:23:22;;;;;;;7.20;6.32;;;;;;;12.65;69.16;101960.13;4821030;29;102205;-53
2021/11/25 10:25:52;;;;;;;6.65;5.85;;;;;;;12.65;69.05;101951.09;4818773;29;102333;-53
2021/11/25 10:28:23;;;;;;;6.13;5.53;;;;;;;12.65;69.23;101953.84;4820862;29;106560;-53
2021/11/25 10:30:51;;;;;;;7.55;5.90;;;;;;;12.65;68.95;101948.38;4821305;29;102258;-52
2021/11/25 10:33:24;;;;;;;8.68;6.63;;;;;;;12.64;69.01;101947.56;4820834;29;102202;-53
2021/11/25 10:38:57;;;;;;;7.00;5.97;;;;;;;12.63;68.97;101935.00;4819365;29;104117;-53
2021/11/25 10:41:26;;;;;;;8.18;6.40;;;;;;;12.64;69.10;101936.63;4819230;29;102464;-53
2021/11/25 10:44:23;;;;;;;6.20;5.50;;;;;;;12.64;69.14;101931.16;4824015;29;102443;-53
2021/11/25 10:46:54;;;;;;;7.68;6.40;;;;;;;12.63;69.08;101929.53;4812299;29;102659;-53
2021/11/25 10:49:35;;;;;;;7.15;6.30;;;;;;;12.62;69.04;101919.69;4820855;29;104108;-53
2021/11/25 10:52:10;;;;;;;7.95;6.35;;;;;;;12.64;68.96;101919.44;4818898;29;106861;-53
2021/11/25 10:54:44;;;;;;;6.60;5.63;;;;;;;12.62;68.99;101919.69;4820022;29;102146;-53
2021/11/25 10:57:11;;;;;;;6.50;5.53;;;;;;;12.62;69.07;101908.78;4819184;29;102780;-53
2021/11/25 10:59:40;;;;;;;6.82;5.72;;;;;;;12.62;68.99;101914.22;4820768;29;103906;-53
2021/11/25 11:02:33;;;;;;;6.88;5.97;;;;;;;12.62;69.11;101921.56;4825720;29;102142;-53
2021/11/25 11:05:13;;;;;;;7.90;6.18;;;;;;;12.61;69.00;101909.81;4789033;29;102488;-53
2021/11/25 11:07:44;;;;;;;6.50;5.75;;;;;;;12.62;68.99;101911.50;4818250;29;102724;-53
2021/11/25 11:10:23;;;;;;;7.18;5.75;;;;;;;12.61;68.94;101901.63;4809013;29;103880;-53
2021/11/25 11:15:50;;;;;;;7.03;6.32;;;;;;;12.61;68.94;101898.09;4810757;29;104791;-53
2021/11/25 11:20:50;;;;;;;7.18;6.00;;;;;;;12.60;68.88;101886.34;4814134;29;103905;-53
2021/11/25 11:23:17;;;;;;;8.13;6.13;;;;;;;12.60;68.77;101886.34;4817719;29;104899;-54